createdAt,value
2022-08-17T00:00:03.712Z,20.16
2022-08-17T00:01:03.783Z,20.18
2022-08-17T00:02:05.841Z,20.18
2022-08-17T00:03:03.709Z,20.18
2022-08-17T00:04:06.879Z,20.11
2022-08-17T00:05:03.707Z,20.16
2022-08-17T00:06:03.703Z,20.16
2022-08-17T00:07:03.702Z,20.14
2022-08-17T00:08:03.714Z,20.13
2022-08-17T00:09:03.698Z,20.07
2022-08-17T00:10:03.765Z,20.09
2022-08-17T00:11:03.698Z,20.11
2022-08-17T00:12:34.934Z,20.09
2022-08-17T00:13:03.693Z,20.10
2022-08-17T00:14:03.699Z,20.14
2022-08-17T00:15:03.696Z,20.11
2022-08-17T00:16:03.693Z,20.10
2022-08-17T00:17:03.729Z,20.10
2022-08-17T00:18:03.689Z,19.95
2022-08-17T00:19:08.425Z,20.02
2022-08-17T00:20:03.685Z,19.95
2022-08-17T00:21:03.685Z,19.99
2022-08-17T00:22:32.499Z,20.03
2022-08-17T00:23:03.682Z,20.00
2022-08-17T00:24:03.682Z,20.02
2022-08-17T00:25:03.687Z,19.99
2022-08-17T00:26:03.678Z,20.00
2022-08-17T00:27:03.680Z,19.95
2022-08-17T00:28:03.676Z,19.94
2022-08-17T00:29:03.678Z,19.94
2022-08-17T00:30:03.676Z,19.81
2022-08-17T00:31:03.672Z,19.89
2022-08-17T00:33:14.350Z,19.82
2022-08-17T00:33:15.898Z,19.95
2022-08-17T00:34:03.666Z,19.84
2022-08-17T00:35:03.668Z,19.79
2022-08-17T00:36:03.669Z,19.77
2022-08-17T00:37:03.673Z,19.81
2022-08-17T00:38:03.658Z,19.74
2022-08-17T00:39:03.661Z,19.85
2022-08-17T00:40:03.744Z,19.67
2022-08-17T00:41:03.658Z,19.69
2022-08-17T00:42:03.659Z,19.74
2022-08-17T00:43:03.654Z,19.52
2022-08-17T00:44:03.660Z,19.62
2022-08-17T00:45:03.650Z,19.64
2022-08-17T00:46:03.655Z,19.56
2022-08-17T00:47:03.651Z,19.55
2022-08-17T00:48:03.652Z,19.56
2022-08-17T00:49:03.649Z,19.63
2022-08-17T00:50:03.650Z,19.44
2022-08-17T00:51:03.646Z,19.40
2022-08-17T00:52:03.653Z,19.40
2022-08-17T00:53:03.641Z,19.44
2022-08-17T00:54:03.645Z,19.48
2022-08-17T00:55:03.638Z,19.48
2022-08-17T00:56:03.642Z,19.51
2022-08-17T00:57:03.638Z,19.48
2022-08-17T00:58:03.639Z,19.41
2022-08-17T00:59:03.631Z,19.40
2022-08-17T01:00:04.047Z,19.41
2022-08-17T01:01:03.738Z,19.40
2022-08-17T01:02:03.709Z,19.40
2022-08-17T01:03:03.624Z,19.48
2022-08-17T01:04:03.637Z,19.44
2022-08-17T01:05:03.624Z,19.39
2022-08-17T01:06:03.623Z,19.45
2022-08-17T01:07:03.622Z,19.48
2022-08-17T01:08:03.620Z,19.62
2022-08-17T01:09:03.623Z,19.58
2022-08-17T01:10:03.621Z,19.66
2022-08-17T01:11:03.613Z,19.71
2022-08-17T01:12:03.619Z,19.64
2022-08-17T01:13:03.612Z,19.69
2022-08-17T01:14:03.608Z,19.70
2022-08-17T01:15:03.611Z,19.71
2022-08-17T01:16:03.610Z,19.71
2022-08-17T01:17:03.606Z,19.54
2022-08-17T01:18:03.606Z,19.58
2022-08-17T01:19:03.605Z,19.49
2022-08-17T01:20:03.597Z,19.52
2022-08-17T01:21:03.600Z,19.48
2022-08-17T01:22:03.598Z,19.48
2022-08-17T01:23:03.594Z,19.31
2022-08-17T01:24:03.598Z,19.19
2022-08-17T01:25:03.591Z,19.21
2022-08-17T01:26:03.592Z,19.11
2022-08-17T01:27:03.593Z,19.08
2022-08-17T01:28:03.589Z,19.08
2022-08-17T01:29:03.583Z,19.07
2022-08-17T01:30:03.585Z,19.09
2022-08-17T01:31:03.583Z,19.08
2022-08-17T01:32:03.592Z,19.08
2022-08-17T01:33:03.578Z,19.22
2022-08-17T01:34:03.575Z,19.22
2022-08-17T01:35:03.576Z,19.26
2022-08-17T01:36:03.588Z,19.22
2022-08-17T01:37:03.573Z,19.26
2022-08-17T01:38:03.572Z,19.22
2022-08-17T01:39:03.565Z,19.19
2022-08-17T01:40:03.609Z,19.21
2022-08-17T01:41:03.564Z,19.14
2022-08-17T01:42:03.562Z,18.93
2022-08-17T01:43:03.557Z,18.89
2022-08-17T01:44:03.557Z,18.88
2022-08-17T01:45:03.557Z,18.68
2022-08-17T01:46:04.167Z,18.75
2022-08-17T01:47:03.554Z,18.60
2022-08-17T01:48:03.553Z,18.75
2022-08-17T01:49:03.552Z,18.74
2022-08-17T01:50:03.546Z,18.66
2022-08-17T01:51:03.544Z,18.74
2022-08-17T01:52:03.544Z,18.75
2022-08-17T01:53:03.543Z,18.74
2022-08-17T01:54:03.537Z,18.70
2022-08-17T01:55:03.539Z,18.71
2022-08-17T01:56:03.532Z,18.74
2022-08-17T01:57:03.528Z,18.71
2022-08-17T01:58:03.526Z,18.80
2022-08-17T01:59:03.529Z,18.71
2022-08-17T02:00:03.528Z,18.66
2022-08-17T02:01:03.549Z,18.63
2022-08-17T02:02:03.520Z,18.81
2022-08-17T02:03:03.520Z,18.89
2022-08-17T02:04:03.517Z,18.73
2022-08-17T02:05:03.512Z,18.86
2022-08-17T02:06:03.512Z,18.83
2022-08-17T02:07:03.513Z,18.92
2022-08-17T02:08:03.509Z,18.90
2022-08-17T02:09:03.963Z,18.89
2022-08-17T02:10:03.506Z,18.81
2022-08-17T02:11:03.505Z,18.93
2022-08-17T02:12:47.444Z,18.81
2022-08-17T02:13:03.509Z,18.86
2022-08-17T02:14:04.160Z,18.81
2022-08-17T02:15:03.499Z,18.89
2022-08-17T02:16:03.495Z,18.99
2022-08-17T02:17:03.492Z,18.81
2022-08-17T02:18:03.489Z,18.93
2022-08-17T02:19:03.489Z,18.95
2022-08-17T02:20:03.521Z,18.92
2022-08-17T02:21:03.487Z,18.90
2022-08-17T02:22:03.493Z,18.99
2022-08-17T02:23:03.479Z,18.95
2022-08-17T02:24:03.478Z,18.99
2022-08-17T02:25:03.474Z,18.93
2022-08-17T02:26:03.476Z,18.93
2022-08-17T02:27:03.470Z,18.90
2022-08-17T02:28:03.476Z,18.95
2022-08-17T02:29:03.463Z,18.84
2022-08-17T02:30:03.467Z,18.80
2022-08-17T02:31:03.472Z,18.96
2022-08-17T02:32:03.463Z,18.95
2022-08-17T02:33:04.267Z,18.92
2022-08-17T02:34:05.178Z,18.90
2022-08-17T02:35:03.457Z,18.86
2022-08-17T02:36:03.458Z,18.93
2022-08-17T02:37:03.448Z,18.83
2022-08-17T02:38:03.445Z,18.96
2022-08-17T02:39:03.457Z,18.88
2022-08-17T02:40:03.503Z,18.98
2022-08-17T02:41:03.445Z,18.92
2022-08-17T02:42:03.441Z,18.83
2022-08-17T02:43:03.439Z,18.90
2022-08-17T02:44:03.434Z,18.93
2022-08-17T02:45:03.435Z,18.98
2022-08-17T02:46:03.427Z,18.92
2022-08-17T02:47:03.426Z,18.83
2022-08-17T02:48:03.425Z,18.81
2022-08-17T02:49:03.420Z,18.81
2022-08-17T02:50:03.419Z,18.75
2022-08-17T02:51:03.417Z,18.63
2022-08-17T02:52:03.422Z,18.65
2022-08-17T02:53:04.785Z,18.55
2022-08-17T02:54:40.591Z,18.34
2022-08-17T02:55:03.408Z,18.34
2022-08-17T02:56:03.405Z,18.25
2022-08-17T02:57:03.400Z,18.16
2022-08-17T02:58:03.400Z,18.15
2022-08-17T02:59:03.413Z,18.15
2022-08-17T03:00:03.394Z,18.13
2022-08-17T03:01:03.457Z,18.07
2022-08-17T03:02:03.450Z,18.11
2022-08-17T03:03:03.388Z,18.16
2022-08-17T03:04:03.384Z,18.04
2022-08-17T03:05:03.383Z,18.13
2022-08-17T03:06:03.380Z,18.07
2022-08-17T03:07:03.377Z,18.11
2022-08-17T03:08:03.375Z,18.13
2022-08-17T03:09:03.376Z,18.16
2022-08-17T03:10:03.369Z,18.25
2022-08-17T03:11:03.368Z,18.23
2022-08-17T03:12:03.364Z,18.26
2022-08-17T03:13:03.363Z,18.34
2022-08-17T03:14:03.360Z,18.35
2022-08-17T03:15:03.359Z,18.29
2022-08-17T03:16:03.355Z,18.38
2022-08-17T03:17:03.357Z,18.28
2022-08-17T03:18:03.352Z,18.31
2022-08-17T03:19:03.347Z,18.26
2022-08-17T03:20:03.356Z,18.23
2022-08-17T03:21:03.340Z,18.25
2022-08-17T03:22:08.794Z,18.18
2022-08-17T03:23:03.387Z,18.13
2022-08-17T03:24:05.899Z,18.08
2022-08-17T03:25:03.333Z,18.13
2022-08-17T03:26:03.329Z,18.13
2022-08-17T03:27:03.328Z,18.10
2022-08-17T03:28:03.327Z,18.13
2022-08-17T03:29:03.321Z,18.18
2022-08-17T03:30:03.329Z,18.11
2022-08-17T03:31:03.316Z,18.07
2022-08-17T03:32:03.315Z,18.11
2022-08-17T03:33:03.315Z,18.18
2022-08-17T03:34:03.306Z,18.08
2022-08-17T03:35:03.332Z,18.01
2022-08-17T03:36:03.305Z,18.05
2022-08-17T03:37:03.307Z,18.16
2022-08-17T03:38:03.299Z,18.18
2022-08-17T03:39:03.300Z,18.19
2022-08-17T03:40:03.321Z,18.16
2022-08-17T03:41:03.289Z,18.18
2022-08-17T03:42:03.289Z,18.15
2022-08-17T03:43:03.287Z,18.13
2022-08-17T03:44:03.285Z,18.25
2022-08-17T03:45:03.282Z,18.22
2022-08-17T03:46:03.283Z,18.22
2022-08-17T03:47:03.279Z,18.19
2022-08-17T03:48:03.274Z,18.19
2022-08-17T03:49:03.269Z,18.15
2022-08-17T03:50:03.269Z,18.16
2022-08-17T03:51:03.267Z,18.16
2022-08-17T03:52:03.263Z,18.18
2022-08-17T03:53:03.261Z,18.11
2022-08-17T03:54:03.260Z,18.16
2022-08-17T03:55:03.258Z,18.18
2022-08-17T03:56:03.259Z,18.20
2022-08-17T03:57:03.257Z,18.19
2022-08-17T03:58:03.250Z,18.20
2022-08-17T03:59:03.252Z,18.19
2022-08-17T04:00:03.245Z,18.28
2022-08-17T04:01:03.288Z,18.18
2022-08-17T04:02:03.241Z,18.18
2022-08-17T04:03:03.239Z,18.20
2022-08-17T04:04:03.243Z,18.26
2022-08-17T04:05:03.234Z,18.40
2022-08-17T04:06:03.243Z,18.33
2022-08-17T04:07:03.230Z,18.29
2022-08-17T04:08:03.228Z,18.29
2022-08-17T04:09:03.226Z,18.35
2022-08-17T04:10:03.225Z,18.37
2022-08-17T04:11:03.219Z,18.35
2022-08-17T04:12:04.889Z,18.34
2022-08-17T04:13:03.212Z,18.35
2022-08-17T04:14:03.211Z,18.45
2022-08-17T04:15:03.210Z,18.40
2022-08-17T04:16:03.204Z,18.43
2022-08-17T04:17:03.222Z,18.47
2022-08-17T04:18:03.207Z,18.56
2022-08-17T04:19:03.202Z,18.53
2022-08-17T04:20:03.204Z,18.53
2022-08-17T04:21:03.194Z,18.62
2022-08-17T04:22:03.200Z,18.59
2022-08-17T04:23:03.190Z,18.59
2022-08-17T04:24:03.189Z,18.53
2022-08-17T04:25:03.186Z,18.58
2022-08-17T04:26:03.194Z,18.55
2022-08-17T04:27:03.183Z,18.60
2022-08-17T04:28:03.183Z,18.62
2022-08-17T04:29:03.175Z,18.58
2022-08-17T04:30:03.174Z,18.56
2022-08-17T04:31:03.174Z,18.59
2022-08-17T04:32:03.175Z,18.60
2022-08-17T04:33:06.195Z,18.60
2022-08-17T04:34:03.165Z,18.63
2022-08-17T04:35:03.161Z,18.62
2022-08-17T04:36:03.164Z,18.62
2022-08-17T04:37:03.160Z,18.73
2022-08-17T04:38:03.168Z,18.74
2022-08-17T04:39:03.154Z,18.81
2022-08-17T04:40:04.381Z,18.84
2022-08-17T04:41:03.149Z,18.84
2022-08-17T04:42:03.152Z,18.89
2022-08-17T04:43:03.150Z,18.92
2022-08-17T04:44:03.145Z,19.09
2022-08-17T04:45:03.141Z,19.11
2022-08-17T04:46:03.143Z,19.14
2022-08-17T04:47:03.141Z,19.21
2022-08-17T04:48:03.135Z,19.31
2022-08-17T04:49:03.133Z,19.30
2022-08-17T04:50:03.208Z,19.51
2022-08-17T04:51:03.129Z,19.44
2022-08-17T04:52:04.655Z,19.56
2022-08-17T04:53:03.125Z,19.63
2022-08-17T04:54:03.125Z,19.81
2022-08-17T04:55:03.123Z,19.77
2022-08-17T04:56:03.119Z,19.85
2022-08-17T04:57:03.113Z,20.07
2022-08-17T04:58:03.118Z,20.29
2022-08-17T04:59:03.112Z,20.52
2022-08-17T05:00:03.208Z,20.84
2022-08-17T05:01:03.184Z,21.22
2022-08-17T05:02:03.106Z,21.43
2022-08-17T05:03:03.103Z,21.75
2022-08-17T05:04:20.861Z,22.25
2022-08-17T05:05:03.100Z,22.55
2022-08-17T05:06:03.097Z,22.98
2022-08-17T05:07:03.097Z,23.41
2022-08-17T05:08:03.094Z,23.69
2022-08-17T05:09:03.093Z,24.13
2022-08-17T05:10:03.091Z,24.53
2022-08-17T05:11:03.089Z,24.81
2022-08-17T05:12:03.087Z,25.11
2022-08-17T05:13:03.086Z,25.53
2022-08-17T05:14:03.086Z,25.70
2022-08-17T05:15:03.084Z,26.00
2022-08-17T05:16:03.082Z,26.31
2022-08-17T05:17:07.244Z,26.58
2022-08-17T05:18:03.083Z,26.85
2022-08-17T05:19:03.082Z,27.10
2022-08-17T05:20:03.077Z,27.36
2022-08-17T05:21:03.079Z,27.51
2022-08-17T05:22:03.079Z,27.71
2022-08-17T05:23:03.078Z,27.74
2022-08-17T05:24:03.071Z,27.85
2022-08-17T05:25:03.075Z,27.73
2022-08-17T05:26:03.073Z,27.58
2022-08-17T05:27:06.667Z,27.47
2022-08-17T05:28:03.076Z,27.49
2022-08-17T05:29:03.133Z,27.39
2022-08-17T05:30:03.073Z,27.15
2022-08-17T05:31:03.071Z,27.03
2022-08-17T05:32:03.073Z,26.84
2022-08-17T05:33:03.071Z,26.88
2022-08-17T05:34:03.072Z,27.05
2022-08-17T05:35:03.072Z,27.25
2022-08-17T05:36:03.075Z,27.14
2022-08-17T05:37:03.080Z,27.32
2022-08-17T05:38:03.077Z,27.47
2022-08-17T05:39:03.075Z,27.65
2022-08-17T05:40:03.187Z,27.82
2022-08-17T05:41:03.073Z,28.17
2022-08-17T05:42:03.075Z,28.42
2022-08-17T05:43:03.077Z,28.57
2022-08-17T05:44:05.408Z,28.72
2022-08-17T05:45:03.100Z,28.78
2022-08-17T05:46:03.073Z,28.91
2022-08-17T05:47:03.077Z,29.07
2022-08-17T05:48:03.078Z,29.08
2022-08-17T05:49:03.078Z,29.23
2022-08-17T05:50:03.079Z,29.44
2022-08-17T05:51:03.078Z,29.60
2022-08-17T05:52:03.078Z,29.90
2022-08-17T05:53:03.088Z,29.87
2022-08-17T05:54:03.082Z,29.95
2022-08-17T05:55:03.085Z,30.05
2022-08-17T05:56:03.087Z,30.21
2022-08-17T05:57:03.087Z,30.35
2022-08-17T05:58:03.088Z,30.55
2022-08-17T05:59:03.088Z,30.66
2022-08-17T06:00:03.093Z,30.81
2022-08-17T06:01:03.106Z,31.10
2022-08-17T06:02:03.092Z,31.36
2022-08-17T06:03:03.094Z,31.55
2022-08-17T06:04:03.095Z,31.65
2022-08-17T06:05:03.107Z,31.65
2022-08-17T06:06:03.138Z,31.65
2022-08-17T06:07:03.100Z,31.76
2022-08-17T06:08:03.106Z,31.70
2022-08-17T06:09:03.108Z,31.66
2022-08-17T06:10:03.108Z,31.77
2022-08-17T06:11:03.111Z,31.90
2022-08-17T06:12:03.109Z,31.92
2022-08-17T06:13:03.113Z,31.85
2022-08-17T06:14:03.112Z,31.93
2022-08-17T06:15:03.120Z,31.97
2022-08-17T06:16:03.129Z,31.99
2022-08-17T06:17:03.120Z,32.08
2022-08-17T06:18:03.138Z,32.21
2022-08-17T06:19:03.132Z,32.33
2022-08-17T06:20:03.134Z,32.52
2022-08-17T06:21:03.133Z,32.74
2022-08-17T06:22:03.136Z,32.82
2022-08-17T06:23:03.138Z,32.78
2022-08-17T06:24:03.139Z,32.85
2022-08-17T06:25:03.142Z,33.08
2022-08-17T06:26:03.147Z,33.14
2022-08-17T06:27:03.149Z,33.34
2022-08-17T06:28:03.176Z,33.45
2022-08-17T06:29:03.159Z,33.49
2022-08-17T06:30:03.159Z,33.62
2022-08-17T06:31:03.162Z,33.69
2022-08-17T06:32:03.167Z,33.83
2022-08-17T06:33:03.166Z,33.89
2022-08-17T06:34:03.174Z,34.02
2022-08-17T06:35:03.180Z,34.21
2022-08-17T06:36:06.196Z,34.30
2022-08-17T06:37:03.768Z,34.14
2022-08-17T06:38:03.187Z,34.10
2022-08-17T06:39:03.194Z,34.29
2022-08-17T06:40:03.257Z,34.51
2022-08-17T06:41:03.201Z,34.01
2022-08-17T06:42:03.206Z,33.94
2022-08-17T06:43:06.412Z,34.02
2022-08-17T06:44:03.222Z,33.80
2022-08-17T06:45:03.219Z,33.68
2022-08-17T06:46:04.116Z,33.76
2022-08-17T06:47:03.237Z,34.02
2022-08-17T06:48:03.233Z,34.20
2022-08-17T06:49:03.238Z,34.20
2022-08-17T06:50:03.259Z,34.20
2022-08-17T06:51:03.250Z,34.20
2022-08-17T06:52:03.255Z,33.58
2022-08-17T06:53:03.259Z,33.52
2022-08-17T06:54:03.265Z,33.76
2022-08-17T06:55:03.268Z,34.03
2022-08-17T06:56:03.278Z,34.14
2022-08-17T06:57:03.279Z,34.06
2022-08-17T06:58:05.891Z,34.16
2022-08-17T06:59:03.294Z,33.89
2022-08-17T07:00:03.296Z,33.52
2022-08-17T07:01:03.361Z,33.39
2022-08-17T07:02:03.307Z,33.40
2022-08-17T07:03:03.383Z,33.09
2022-08-17T07:04:06.759Z,33.24
2022-08-17T07:05:03.323Z,33.49
2022-08-17T07:06:03.329Z,33.81
2022-08-17T07:07:03.337Z,33.79
2022-08-17T07:08:03.343Z,33.77
2022-08-17T07:09:03.346Z,34.03
2022-08-17T07:10:03.353Z,34.60
2022-08-17T07:11:03.359Z,34.99
2022-08-17T07:12:03.365Z,35.37
2022-08-17T07:13:03.384Z,35.73
2022-08-17T07:14:03.391Z,35.98
2022-08-17T07:15:03.400Z,35.97
2022-08-17T07:16:03.402Z,35.98
2022-08-17T07:17:03.408Z,36.14
2022-08-17T07:18:03.544Z,36.33
2022-08-17T07:19:03.408Z,36.31
2022-08-17T07:20:03.418Z,35.79
2022-08-17T07:21:03.423Z,35.22
2022-08-17T07:22:03.428Z,35.02
2022-08-17T07:23:03.434Z,34.33
2022-08-17T07:24:03.439Z,34.45
2022-08-17T07:25:03.447Z,34.33
2022-08-17T07:26:03.455Z,34.30
2022-08-17T07:27:03.463Z,34.52
2022-08-17T07:28:05.298Z,34.97
2022-08-17T07:29:03.473Z,35.19
2022-08-17T07:30:06.867Z,35.86
2022-08-17T07:31:03.488Z,36.20
2022-08-17T07:32:03.496Z,36.64
2022-08-17T07:33:03.501Z,37.10
2022-08-17T07:34:03.512Z,37.25
2022-08-17T07:35:03.516Z,37.21
2022-08-17T07:36:03.525Z,37.37
2022-08-17T07:37:03.532Z,37.45
2022-08-17T07:38:03.538Z,37.49
2022-08-17T07:39:03.545Z,37.56
2022-08-17T07:40:15.248Z,37.75
2022-08-17T07:41:03.677Z,37.92
2022-08-17T07:42:03.564Z,38.05
2022-08-17T07:43:04.952Z,38.09
2022-08-17T07:44:03.595Z,37.92
2022-08-17T07:45:03.598Z,37.56
2022-08-17T07:46:03.597Z,37.13
2022-08-17T07:47:03.599Z,36.92
2022-08-17T07:48:03.611Z,36.96
2022-08-17T07:49:03.650Z,37.02
2022-08-17T07:50:03.622Z,36.95
2022-08-17T07:51:03.628Z,37.11
2022-08-17T07:52:47.388Z,37.10
2022-08-17T07:53:03.649Z,37.13
2022-08-17T07:54:14.029Z,37.20
2022-08-17T07:55:03.660Z,37.10
2022-08-17T07:56:03.667Z,37.01
2022-08-17T07:57:03.672Z,36.43
2022-08-17T07:58:03.689Z,35.23
2022-08-17T07:59:03.689Z,34.61
2022-08-17T08:00:03.702Z,34.29
2022-08-17T08:01:03.704Z,33.98
2022-08-17T08:02:03.810Z,33.80
2022-08-17T08:03:03.709Z,33.61
2022-08-17T08:04:03.721Z,33.12
2022-08-17T08:05:03.727Z,32.80
2022-08-17T08:06:03.736Z,32.52
2022-08-17T08:07:03.741Z,32.30
2022-08-17T08:08:03.751Z,32.14
2022-08-17T08:09:03.752Z,32.01
2022-08-17T08:10:03.767Z,32.04
2022-08-17T08:11:03.766Z,32.01
2022-08-17T08:12:03.772Z,31.90
2022-08-17T08:13:03.778Z,31.87
2022-08-17T08:14:03.782Z,31.87
2022-08-17T08:15:03.787Z,31.77
2022-08-17T08:16:03.794Z,31.70
2022-08-17T08:17:03.802Z,31.80
2022-08-17T08:18:03.803Z,32.07
2022-08-17T08:19:03.809Z,32.30
2022-08-17T08:20:19.723Z,32.18
2022-08-17T08:21:03.819Z,32.00
2022-08-17T08:22:03.829Z,31.94
2022-08-17T08:23:03.830Z,31.84
2022-08-17T08:24:03.836Z,31.78
2022-08-17T08:25:03.865Z,31.80
2022-08-17T08:26:03.848Z,31.47
2022-08-17T08:27:03.848Z,31.37
2022-08-17T08:28:03.856Z,31.28
2022-08-17T08:29:03.858Z,31.39
2022-08-17T08:30:03.866Z,31.36
2022-08-17T08:31:03.867Z,31.52
2022-08-17T08:32:03.893Z,31.49
2022-08-17T08:33:03.879Z,31.39
2022-08-17T08:34:03.883Z,31.37
2022-08-17T08:35:04.053Z,31.24
2022-08-17T08:36:03.890Z,31.24
2022-08-17T08:37:16.595Z,31.05
2022-08-17T08:38:03.898Z,31.06
2022-08-17T08:39:03.904Z,30.88
2022-08-17T08:40:03.997Z,30.85
2022-08-17T08:41:03.926Z,30.69
2022-08-17T08:42:03.919Z,30.77
2022-08-17T08:43:03.928Z,30.65
2022-08-17T08:44:03.931Z,30.65
2022-08-17T08:45:05.015Z,30.57
2022-08-17T08:46:03.935Z,30.46
2022-08-17T08:47:03.937Z,30.37
2022-08-17T08:48:05.651Z,30.09
2022-08-17T08:49:11.901Z,29.88
2022-08-17T08:50:05.381Z,29.93
2022-08-17T08:51:03.953Z,29.81
2022-08-17T08:52:03.954Z,29.78
2022-08-17T08:53:03.957Z,29.81
2022-08-17T08:54:03.968Z,29.86
2022-08-17T08:55:03.969Z,29.87
2022-08-17T08:56:03.972Z,30.08
2022-08-17T08:58:03.982Z,30.19
2022-08-17T08:59:03.983Z,30.24
2022-08-17T09:00:03.985Z,30.24
2022-08-17T09:01:04.020Z,30.27
2022-08-17T09:02:03.997Z,30.30
2022-08-17T09:03:03.996Z,30.21
2022-08-17T09:04:21.433Z,30.24
2022-08-17T09:05:17.050Z,30.18
2022-08-17T09:06:04.011Z,30.13
2022-08-17T09:07:04.014Z,30.16
2022-08-17T09:08:04.016Z,30.09
2022-08-17T09:09:04.019Z,30.13
2022-08-17T09:10:04.032Z,30.24
2022-08-17T09:11:04.027Z,30.19
2022-08-17T09:12:04.397Z,30.19
2022-08-17T09:13:09.905Z,30.21
2022-08-17T09:14:04.039Z,30.39
2022-08-17T09:15:04.042Z,30.31
2022-08-17T09:16:04.048Z,30.44
2022-08-17T09:17:04.050Z,30.32
2022-08-17T09:19:03.544Z,30.47
2022-08-17T09:19:04.944Z,30.44
2022-08-17T09:20:04.062Z,30.44
2022-08-17T09:21:04.074Z,30.50
2022-08-17T09:22:04.073Z,30.39
2022-08-17T09:23:04.083Z,30.43
2022-08-17T09:24:04.077Z,30.21
2022-08-17T09:25:04.080Z,30.09
2022-08-17T09:26:04.083Z,30.06
2022-08-17T09:27:04.085Z,30.02
2022-08-17T09:28:04.089Z,29.94
2022-08-17T09:29:04.621Z,29.90
2022-08-17T09:30:04.099Z,29.93
2022-08-17T09:31:04.102Z,29.98
2022-08-17T09:32:04.103Z,30.16
2022-08-17T09:33:04.105Z,30.28
2022-08-17T09:34:04.113Z,30.27
2022-08-17T09:35:04.116Z,30.30
2022-08-17T09:36:04.118Z,30.47
2022-08-17T09:37:04.120Z,30.50
2022-08-17T09:38:04.125Z,30.65
2022-08-17T09:39:04.130Z,30.65
2022-08-17T09:40:04.242Z,30.65
2022-08-17T09:41:04.137Z,30.80
2022-08-17T09:42:04.142Z,30.65
2022-08-17T09:43:04.142Z,30.75
2022-08-17T09:44:04.166Z,30.83
2022-08-17T09:45:04.149Z,30.83
2022-08-17T09:46:04.167Z,30.87
2022-08-17T09:47:04.163Z,30.80
2022-08-17T09:48:04.163Z,30.85
2022-08-17T09:49:04.162Z,30.84
2022-08-17T09:50:04.172Z,30.97
2022-08-17T09:51:06.599Z,30.78
2022-08-17T09:52:04.179Z,30.72
2022-08-17T09:53:04.186Z,30.68
2022-08-17T09:54:34.907Z,30.73
2022-08-17T09:55:04.190Z,30.75
2022-08-17T09:56:04.189Z,30.84
2022-08-17T09:57:27.940Z,30.90
2022-08-17T09:58:04.204Z,30.80
2022-08-17T09:59:04.214Z,30.94
2022-08-17T10:00:04.215Z,31.05
2022-08-17T10:01:04.262Z,31.05
2022-08-17T10:02:04.216Z,31.12
2022-08-17T10:03:04.222Z,31.17
2022-08-17T10:04:04.224Z,31.28
2022-08-17T10:05:04.229Z,31.07
2022-08-17T10:06:06.479Z,31.03
2022-08-17T10:07:04.233Z,31.03
2022-08-17T10:08:04.236Z,31.12
2022-08-17T10:09:04.244Z,31.18
2022-08-17T10:10:04.246Z,31.25
2022-08-17T10:11:04.250Z,31.36
2022-08-17T10:12:04.254Z,31.49
2022-08-17T10:13:04.258Z,31.46
2022-08-17T10:14:36.032Z,31.47
2022-08-17T10:15:08.159Z,31.34
2022-08-17T10:16:04.269Z,31.25
2022-08-17T10:17:04.275Z,31.24
2022-08-17T10:18:04.275Z,31.33
2022-08-17T10:19:04.311Z,31.37
2022-08-17T10:20:04.288Z,31.42
2022-08-17T10:21:04.293Z,31.40
2022-08-17T10:22:33.010Z,31.36
2022-08-17T10:23:04.304Z,31.31
2022-08-17T10:24:04.304Z,31.28
2022-08-17T10:25:23.153Z,31.25
2022-08-17T10:26:04.311Z,31.46
2022-08-17T10:27:04.320Z,31.40
2022-08-17T10:28:04.319Z,31.47
2022-08-17T10:29:04.323Z,31.51
2022-08-17T10:30:04.330Z,31.61
2022-08-17T10:31:34.728Z,31.64
2022-08-17T10:32:04.338Z,31.51
2022-08-17T10:33:04.341Z,31.28
2022-08-17T10:34:04.346Z,31.24
2022-08-17T10:35:04.345Z,31.14
2022-08-17T10:36:08.742Z,30.90
2022-08-17T10:37:04.357Z,31.07
2022-08-17T10:38:04.361Z,31.14
2022-08-17T10:39:04.368Z,31.20
2022-08-17T10:40:04.438Z,31.36
2022-08-17T10:41:04.373Z,31.44
2022-08-17T10:42:04.379Z,31.52
2022-08-17T10:43:04.383Z,31.64
2022-08-17T10:44:40.851Z,31.55
2022-08-17T10:45:04.390Z,31.39
2022-08-17T10:46:10.624Z,31.28
2022-08-17T10:47:04.401Z,31.31
2022-08-17T10:48:06.518Z,31.40
2022-08-17T10:49:04.406Z,31.36
2022-08-17T10:50:04.411Z,31.14
2022-08-17T10:51:04.417Z,31.02
2022-08-17T10:52:04.421Z,30.96
2022-08-17T10:53:04.424Z,30.97
2022-08-17T10:54:04.428Z,31.06
2022-08-17T10:55:04.434Z,31.06
2022-08-17T10:56:04.445Z,31.22
2022-08-17T10:57:04.439Z,31.24
2022-08-17T10:58:04.444Z,31.36
2022-08-17T10:59:04.448Z,31.36
2022-08-17T11:00:04.454Z,31.39
2022-08-17T11:01:04.495Z,31.22
2022-08-17T11:02:04.468Z,31.17
2022-08-17T11:03:04.464Z,30.91
2022-08-17T11:04:04.471Z,30.91
2022-08-17T11:05:04.473Z,30.92
2022-08-17T11:06:04.476Z,30.96
2022-08-17T11:07:04.478Z,31.18
2022-08-17T11:08:04.487Z,31.22
2022-08-17T11:09:04.495Z,31.25
2022-08-17T11:10:04.496Z,31.33
2022-08-17T11:11:04.496Z,31.42
2022-08-17T11:12:04.504Z,31.52
2022-08-17T11:13:04.505Z,31.64
2022-08-17T11:14:04.509Z,31.73
2022-08-17T11:15:04.515Z,31.94
2022-08-17T11:16:08.232Z,32.00
2022-08-17T11:17:04.522Z,31.93
2022-08-17T11:18:04.527Z,31.70
2022-08-17T11:19:04.534Z,31.76
2022-08-17T11:20:04.536Z,31.77
2022-08-17T11:21:04.538Z,31.66
2022-08-17T11:22:04.544Z,31.76
2022-08-17T11:23:04.547Z,31.84
2022-08-17T11:24:04.598Z,31.90
2022-08-17T11:25:04.559Z,31.77
2022-08-17T11:26:04.563Z,31.80
2022-08-17T11:27:04.570Z,31.78
2022-08-17T11:28:04.571Z,31.84
2022-08-17T11:29:04.574Z,31.87
2022-08-17T11:30:04.579Z,31.87
2022-08-17T11:31:04.584Z,31.73
2022-08-17T11:32:04.598Z,31.90
2022-08-17T11:33:04.590Z,31.78
2022-08-17T11:34:04.596Z,31.87
2022-08-17T11:35:04.607Z,31.87
2022-08-17T11:36:04.605Z,31.85
2022-08-17T11:37:04.605Z,31.85
2022-08-17T11:38:04.612Z,31.93
2022-08-17T11:39:04.620Z,32.00
2022-08-17T11:40:04.688Z,32.14
2022-08-17T11:41:04.623Z,32.15
2022-08-17T11:42:04.632Z,32.26
2022-08-17T11:43:04.637Z,32.21
2022-08-17T11:44:04.640Z,32.08
2022-08-17T11:45:04.642Z,31.85
2022-08-17T11:46:04.649Z,31.77
2022-08-17T11:47:04.652Z,31.71
2022-08-17T11:48:31.093Z,31.73
2022-08-17T11:49:04.662Z,31.54
2022-08-17T11:50:04.669Z,31.46
2022-08-17T11:51:04.668Z,31.43
2022-08-17T11:52:04.673Z,31.43
2022-08-17T11:53:04.677Z,31.51
2022-08-17T11:54:31.174Z,31.52
2022-08-17T11:55:31.839Z,31.42
2022-08-17T11:56:04.692Z,31.46
2022-08-17T11:57:04.695Z,31.52
2022-08-17T11:58:04.701Z,31.58
2022-08-17T11:59:04.705Z,31.59
2022-08-17T12:00:04.709Z,31.78
2022-08-17T12:01:06.036Z,31.96
2022-08-17T12:02:04.718Z,32.22
2022-08-17T12:03:04.753Z,32.33
2022-08-17T12:04:04.765Z,32.46
2022-08-17T12:05:04.730Z,32.55
2022-08-17T12:06:04.735Z,32.46
2022-08-17T12:07:04.738Z,32.31
2022-08-17T12:08:04.744Z,32.18
2022-08-17T12:09:04.752Z,32.16
2022-08-17T12:10:04.756Z,32.01
2022-08-17T12:11:04.756Z,32.11
2022-08-17T12:12:13.759Z,32.29
2022-08-17T12:13:04.766Z,32.41
2022-08-17T12:14:04.769Z,32.40
2022-08-17T12:15:12.405Z,32.71
2022-08-17T12:16:04.782Z,32.95
2022-08-17T12:17:04.780Z,33.08
2022-08-17T12:18:04.790Z,33.36
2022-08-17T12:19:04.804Z,33.42
2022-08-17T12:20:04.801Z,33.65
2022-08-17T12:21:04.803Z,33.79
2022-08-17T12:22:04.809Z,33.90
2022-08-17T12:23:04.824Z,33.95
2022-08-17T12:24:04.817Z,34.02
2022-08-17T12:25:04.822Z,33.99
2022-08-17T12:26:04.831Z,34.11
2022-08-17T12:27:04.838Z,34.29
2022-08-17T12:28:07.435Z,34.32
2022-08-17T12:29:05.140Z,34.50
2022-08-17T12:30:04.849Z,34.33
2022-08-17T12:31:04.852Z,34.29
2022-08-17T12:32:04.859Z,34.30
2022-08-17T12:33:04.863Z,34.20
2022-08-17T12:34:04.872Z,34.10
2022-08-17T12:35:04.876Z,34.03
2022-08-17T12:36:04.883Z,33.94
2022-08-17T12:37:04.884Z,33.95
2022-08-17T12:38:04.893Z,33.90
2022-08-17T12:39:14.228Z,33.95
2022-08-17T12:40:05.009Z,33.90
2022-08-17T12:41:04.929Z,33.79
2022-08-17T12:42:04.914Z,33.61
2022-08-17T12:43:04.919Z,33.58
2022-08-17T12:44:04.933Z,33.49
2022-08-17T12:45:04.926Z,33.49
2022-08-17T12:46:13.486Z,33.37
2022-08-17T12:47:04.938Z,33.37
2022-08-17T12:48:04.944Z,33.39
2022-08-17T12:49:04.949Z,33.37
2022-08-17T12:50:05.013Z,33.43
2022-08-17T12:51:04.959Z,33.59
2022-08-17T12:52:04.967Z,33.39
2022-08-17T12:53:04.969Z,33.22